Time;durP1;ratioP1;P1;durP2;ratioP2;P2;SDS_P1;SDS_P2;PMS_P1;PMS_P2;Temp;Humidity;BMP_temperature;BMP_pressure;BME280_temperature;BME280_humidity;BME280_pressure;Samples;Min_cycle;Max_cycle;Signal;HPM_P1;HPM_P2
2021/05/21 06:52:08;;;;;;;;;;;;;;;14.15;58.31;98913.66;6228689;22;19956;-86
2021/05/21 06:54:35;;;;;;;;;;;;;;;14.16;58.41;98925.16;6220908;23;20396;-88
2021/05/21 06:57:01;;;;;;;;;;;;;;;14.16;58.60;98914.50;6221348;23;20069;-87
2021/05/21 06:59:26;;;;;;;;;;;;;;;14.16;58.42;98919.81;6220608;23;20403;-87
2021/05/21 07:01:52;;;;;;;;;;;;;;;14.16;58.53;98914.50;6219552;23;19912;-86
2021/05/21 07:04:17;;;;;;;;;;;;;;;14.15;58.59;98916.31;6220122;23;19947;-86
2021/05/21 07:06:42;;;;;;;;;;;;;;;14.16;58.86;98927.81;6220167;23;19922;-87
2021/05/21 07:09:08;;;;;;;;;;;;;;;14.16;58.81;98927.81;6219939;23;19982;-90
2021/05/21 07:11:50;;;;;;;;;;;;;;;14.16;58.81;98931.31;5156006;27;19923;-89
2021/05/21 07:14:16;;;;;;;;;;;;;;;14.17;58.73;98927.72;5154821;27;19930;-90
2021/05/21 07:16:41;;;;;;;;;;;;;;;14.17;58.63;98926.88;5155525;27;19915;-89
2021/05/21 07:19:07;;;;;;;;;;;;;;;14.17;58.60;98943.69;5154497;27;19920;-88
2021/05/21 07:21:32;;;;;;;;;;;;;;;14.20;58.25;98947.09;5150506;27;19977;-88
2021/05/21 07:23:58;;;;;;;;;;;;;;;14.20;58.46;98933.78;5153806;27;19954;-89
2021/05/21 07:26:25;;;;;;;;;;;;;;;14.20;58.41;98947.09;5155060;27;19926;-88
2021/05/21 07:28:50;;;;;;;;;;;;;;;14.21;58.32;98951.47;5153941;27;19920;-89
2021/05/21 07:31:17;;;;;;;;;;;;;;;14.20;58.19;98950.63;5154023;27;19919;-89
2021/05/21 07:33:42;;;;;;;;;;;;;;;14.19;58.34;98940.91;5153461;27;19930;-89
2021/05/21 07:36:07;;;;;;;;;;;;;;;14.19;58.24;98940.91;5153526;27;20181;-89
2021/05/21 07:38:35;;;;;;;;;;;;;;;14.20;58.39;98928.44;5153918;27;19930;-89
2021/05/21 07:41:01;;;;;;;;;;;;;;;14.21;58.12;98922.16;5153808;27;20060;-89
2021/05/21 07:43:26;;;;;;;;;;;;;;;14.22;58.00;98923.88;5155046;27;19982;-89
2021/05/21 07:45:52;;;;;;;;;;;;;;;14.23;58.13;98920.22;5154258;27;20005;-89
2021/05/21 07:48:17;;;;;;;;;;;;;;;14.23;57.98;98904.25;5154226;27;20304;-89
2021/05/21 07:50:43;;;;;;;;;;;;;;;14.23;57.98;98913.13;5153891;27;19923;-90
2021/05/21 07:53:09;;;;;;;;;;;;;;;14.24;58.00;98927.28;5154865;27;19920;-90
2021/05/21 07:55:35;;;;;;;;;;;;;;;14.24;57.93;98935.25;5153969;27;20365;-89
2021/05/21 07:58:00;;;;;;;;;;;;;;;14.23;57.87;98933.56;5153584;27;19919;-89
2021/05/21 08:00:25;;;;;;;;;;;;;;;14.23;57.93;98941.53;5154736;27;20018;-90
2021/05/21 08:02:51;;;;;;;;;;;;;;;14.22;57.98;98940.69;5153365;27;19927;-90
2021/05/21 08:05:16;;;;;;;;;;;;;;;14.23;58.00;98933.56;5153806;27;19915;-90
2021/05/21 08:07:41;;;;;;;;;;;;;;;14.24;58.06;98935.25;5152831;27;19927;-90
2021/05/21 08:10:08;;;;;;;;;;;;;;;14.23;58.21;98937.09;5152367;27;19930;-90
2021/05/21 08:12:34;;;;;;;;;;;;;;;14.23;58.10;98942.41;5154271;27;19923;-91
2021/05/21 08:14:59;;;;;;;;;;;;;;;14.25;58.16;98950.28;5152922;27;19919;-90
2021/05/21 08:17:25;;;;;;;;;;;;;;;14.24;58.09;98946.75;5148468;27;20057;-89
2021/05/21 09:07:30;;;;;;;;;;;;;;;14.08;61.85;98933.69;5150195;27;20001;-87
2021/05/21 09:09:56;;;;;;;;;;;;;;;14.11;61.47;98945.94;5131047;27;20010;-87
2021/05/21 09:12:23;;;;;;;;;;;;;;;14.13;61.30;98952.84;5130546;27;20090;-88
2021/05/21 09:15:06;;;;;;;;;;;;;;;14.14;61.06;98959.88;5149591;27;20523;-87
2021/05/21 09:17:32;;;;;;;;;;;;;;;14.16;60.37;98939.31;5149788;27;20225;-88
2021/05/21 09:19:58;;;;;;;;;;;;;;;14.19;60.02;98937.41;5131101;27;20210;-88
2021/05/21 09:22:23;;;;;;;;;;;;;;;14.19;60.32;98946.25;5149088;27;20121;-87
2021/05/21 09:24:49;;;;;;;;;;;;;;;14.20;60.14;98950.63;5131251;27;19915;-88
2021/05/21 09:27:15;;;;;;;;;;;;;;;14.21;60.07;98959.47;5130975;27;19938;-88
2021/05/21 09:29:45;;;;;;;;;;;;;;;14.31;62.36;98949.84;5148930;27;19923;-87
2021/05/21 09:32:23;;;;;;;;;;;;;;;14.32;61.76;98940.91;5130905;27;20068;-87
2021/05/21 09:35:03;;;;;;;;;;;;;;;14.29;61.41;98930.44;5136044;27;19919;-89
2021/05/21 09:37:29;;;;;;;;;;;;;;;14.54;63.13;98942.88;5134943;27;19920;-85
2021/05/21 09:40:05;;;;;;;;;;;;;;;14.54;62.52;98946.38;5134566;27;19927;-87
2021/05/21 09:42:50;;;;;;;;;;;;;;;14.55;63.80;98955.25;5126661;27;19926;-88
2021/05/21 09:45:16;;;;;;;;;;;;;;;14.67;66.09;98946.34;5133255;27;19923;-88
2021/05/21 09:47:50;;;;;;;;;;;;;;;14.60;64.89;98947.78;5138448;27;19920;-85
2021/05/21 09:50:16;;;;;;;;;;;;;;;14.43;63.12;98956.97;5133821;27;20186;-84
2021/05/21 09:52:46;;;;;;;;;;;;;;;14.45;63.28;98946.19;5148032;27;19979;-89
2021/05/21 09:55:11;;;;;;;;;;;;;;;14.61;66.02;98944.13;5153256;27;19992;-92
2021/05/21 09:57:36;;;;;;;;;;;;;;;14.75;67.22;98963.63;5133389;27;19972;-85
2021/05/21 10:00:20;;;;;;;;;;;;;;;14.81;66.60;98949.84;5156180;27;19980;-91
2021/05/21 10:02:45;;;;;;;;;;;;;;;14.80;65.93;98934.81;5133424;27;19919;-92
2021/05/21 10:05:11;;;;;;;;;;;;;;;14.79;66.09;98938.41;5131949;27;19923;-85
2021/05/21 10:07:36;;;;;;;;;;;;;;;14.70;66.07;98950.63;5138482;27;19930;-85
2021/05/21 10:10:02;;;;;;;;;;;;;;;14.58;65.99;98954.16;5151693;27;19923;-86
2021/05/21 10:12:28;;;;;;;;;;;;;;;14.52;64.78;98945.63;5151569;27;19919;-85
2021/05/21 10:14:53;;;;;;;;;;;;;;;14.47;63.98;98946.91;5151157;27;19926;-85
2021/05/21 10:17:23;;;;;;;;;;;;;;;14.44;62.72;98950.69;5143860;27;19980;-86
2021/05/21 10:19:50;;;;;;;;;;;;;;;14.41;61.95;98942.91;5137762;27;20082;-85
2021/05/21 10:22:19;;;;;;;;;;;;;;;14.40;61.53;98937.69;5136197;27;19927;-85
2021/05/21 10:24:46;;;;;;;;;;;;;;;14.37;61.53;98940.56;5137166;27;19927;-86
2021/05/21 10:27:18;;;;;;;;;;;;;;;14.35;61.67;98930.84;5133646;27;19924;-85
2021/05/21 10:29:48;;;;;;;;;;;;;;;14.31;61.66;98928.53;5136355;27;19920;-85
2021/05/21 10:32:16;;;;;;;;;;;;;;;14.30;61.57;98924.19;5136218;27;20467;-85
2021/05/21 10:34:43;;;;;;;;;;;;;;;14.28;61.58;98931.41;5134328;27;19927;-86
2021/05/21 10:37:36;;;;;;;;;;;;;;;14.27;61.03;98927.91;5119283;27;19972;-85
2021/05/21 10:40:01;;;;;;;;;;;;;;;14.31;60.72;98939.19;5132905;27;20473;-86
2021/05/21 10:42:27;;;;;;;;;;;;;;;14.29;60.84;98939.28;5136464;27;19919;-85
2021/05/21 10:44:54;;;;;;;;;;;;;;;14.28;60.72;98913.63;5137064;27;19919;-85
2021/05/21 10:47:21;;;;;;;;;;;;;;;14.26;60.41;98936.00;5134902;27;19926;-87
2021/05/21 10:49:50;;;;;;;;;;;;;;;14.28;60.21;98929.63;5137835;27;19968;-87
2021/05/21 10:52:15;;;;;;;;;;;;;;;14.23;60.51;98910.44;5138201;27;19919;-86
2021/05/21 10:54:42;;;;;;;;;;;;;;;14.29;58.92;98928.63;5119579;27;19920;-86
2021/05/21 10:57:14;;;;;;;;;;;;;;;14.28;59.02;98931.41;5137877;27;19919;-85
2021/05/21 10:59:40;;;;;;;;;;;;;;;14.30;58.40;98937.50;5118212;27;19919;-86
2021/05/21 11:02:06;;;;;;;;;;;;;;;14.27;58.57;98927.06;5118671;27;20437;-84
2021/05/21 11:04:31;;;;;;;;;;;;;;;14.29;58.10;98931.28;5137272;27;19919;-85
2021/05/21 11:06:56;;;;;;;;;;;;;;;14.33;57.37;98926.63;5136914;27;19923;-85
2021/05/21 11:09:27;;;;;;;;;;;;;;;14.32;56.86;98920.41;5119344;27;20014;-86
2021/05/21 11:12:15;;;;;;;;;;;;;;;14.30;57.30;98927.69;5119447;27;20360;-85
2021/05/21 11:14:42;;;;;;;;;;;;;;;14.30;57.10;98930.34;5138414;27;20356;-86
2021/05/21 11:17:07;;;;;;;;;;;;;;;14.31;57.32;98939.19;5135805;27;19922;-86
2021/05/21 11:19:33;;;;;;;;;;;;;;;14.32;56.60;98919.56;5132704;27;19920;-86
2021/05/21 11:22:13;;;;;;;;;;;;;;;14.35;56.20;98930.00;5117585;27;20443;-87
2021/05/21 11:24:46;;;;;;;;;;;;;;;14.36;55.82;98931.72;5137268;27;19970;-86
2021/05/21 11:27:12;;;;;;;;;;;;;;;14.35;56.34;98930.84;5136225;27;19938;-85
2021/05/21 11:29:42;;;;;;;;;;;;;;;14.37;55.11;98924.56;5134681;27;20294;-85
2021/05/21 11:32:07;;;;;;;;;;;;;;;14.39;54.71;98935.97;5118666;27;19968;-85
2021/05/21 11:34:33;;;;;;;;;;;;;;;14.39;54.97;98962.63;5136291;27;19915;-85
2021/05/21 11:36:58;;;;;;;;;;;;;;;14.36;54.98;98931.72;5117260;27;19920;-85
2021/05/21 11:39:25;;;;;;;;;;;;;;;14.32;55.65;98952.38;5133103;27;19946;-85
2021/05/21 11:41:51;;;;;;;;;;;;;;;14.31;55.63;98944.50;5113838;27;20014;-85
2021/05/21 11:44:17;;;;;;;;;;;;;;;14.29;56.37;98939.28;5121553;27;20006;-85
2021/05/21 11:46:43;;;;;;;;;;;;;;;14.28;56.51;98945.59;5129423;27;19958;-86
2021/05/21 11:49:09;;;;;;;;;;;;;;;14.26;56.84;98939.50;5136379;27;20517;-86
2021/05/21 11:51:34;;;;;;;;;;;;;;;14.26;57.19;98928.00;5137579;27;20019;-86
2021/05/21 11:54:07;;;;;;;;;;;;;;;14.25;57.25;98932.50;5119061;27;20441;-86
2021/05/21 11:56:33;;;;;;;;;;;;;;;14.23;57.83;98921.09;5136491;27;19919;-85
2021/05/21 11:58:59;;;;;;;;;;;;;;;14.23;57.98;98934.44;5137079;27;19962;-86
2021/05/21 12:01:25;;;;;;;;;;;;;;;14.25;57.96;98923.63;5138314;27;19954;-86
2021/05/21 12:03:50;;;;;;;;;;;;;;;14.23;58.09;98930.88;5136103;27;20331;-86
2021/05/21 12:06:16;;;;;;;;;;;;;;;14.23;58.06;98913.13;5136153;27;20006;-85
2021/05/21 12:08:48;;;;;;;;;;;;;;;14.22;57.91;98914.06;5137794;27;19919;-87
2021/05/21 12:11:13;;;;;;;;;;;;;;;14.24;57.61;98917.47;5118527;27;20221;-85
2021/05/21 12:13:39;;;;;;;;;;;;;;;14.26;57.03;98896.88;5118682;27;19998;-86
2021/05/21 12:16:11;;;;;;;;;;;;;;;14.28;56.03;98918.94;5115931;28;20418;-85
2021/05/21 12:18:36;;;;;;;;;;;;;;;14.29;55.80;98909.13;5116276;28;19920;-85
2021/05/21 12:21:02;;;;;;;;;;;;;;;14.29;54.91;98901.97;5098156;28;19981;-85
2021/05/21 12:23:33;;;;;;;;;;;;;;;14.30;54.92;98917.03;5098383;28;20242;-86
2021/05/21 12:25:58;;;;;;;;;;;;;;;14.29;54.68;98901.97;5115692;28;20011;-85
2021/05/21 12:28:24;;;;;;;;;;;;;;;14.30;54.36;98914.34;5115556;28;20361;-85
2021/05/21 12:30:49;;;;;;;;;;;;;;;14.30;53.81;98906.38;5097443;28;19987;-85
2021/05/21 12:33:15;;;;;;;;;;;;;;;14.27;54.35;98890.59;5097474;28;19977;-85
2021/05/21 12:35:41;;;;;;;;;;;;;;;14.28;53.85;98897.63;5114476;28;20413;-85
2021/05/21 12:38:08;;;;;;;;;;;;;;;14.27;54.15;98903.06;5096092;28;19928;-85
2021/05/21 12:40:34;;;;;;;;;;;;;;;14.27;54.31;98916.41;5096191;28;19924;-85
2021/05/21 12:43:05;;;;;;;;;;;;;;;14.25;54.38;98907.63;5115062;28;19931;-86
2021/05/21 12:45:30;;;;;;;;;;;;;;;14.27;53.84;98895.09;5095738;28;19948;-85
2021/05/21 12:47:55;;;;;;;;;;;;;;;14.27;53.68;98895.09;5115132;28;19949;-85
2021/05/21 12:50:21;;;;;;;;;;;;;;;14.24;53.79;98890.81;5115112;28;20203;-86
2021/05/21 12:52:56;;;;;;;;;;;;;;;14.26;53.51;98888.03;5097916;28;20431;-86
2021/05/21 12:55:22;;;;;;;;;;;;;;;14.27;53.45;98881.75;5097299;28;19928;-85
2021/05/21 12:57:47;;;;;;;;;;;;;;;14.27;53.63;98879.09;5097915;28;19920;-86
2021/05/21 13:00:17;;;;;;;;;;;;;;;14.28;53.38;98889.66;5115363;28;19920;-86
2021/05/21 13:02:48;;;;;;;;;;;;;;;14.28;53.74;98894.97;5097321;28;19920;-86
2021/05/21 13:05:14;;;;;;;;;;;;;;;14.27;53.68;98885.25;5115206;28;19927;-87
2021/05/21 13:07:41;;;;;;;;;;;;;;;14.26;53.72;98878.22;5115267;28;19920;-85
2021/05/21 13:10:07;;;;;;;;;;;;;;;14.26;53.94;98888.03;5115193;28;20064;-85
2021/05/21 13:12:39;;;;;;;;;;;;;;;14.27;53.83;98889.75;5113611;28;19920;-85
2021/05/21 13:15:08;;;;;;;;;;;;;;;14.26;53.71;98888.03;5115214;28;20218;-87
2021/05/21 13:17:37;;;;;;;;;;;;;;;14.25;54.12;98896.97;5097380;28;19920;-85
2021/05/21 13:20:02;;;;;;;;;;;;;;;14.24;54.34;98890.81;5114692;28;19939;-86
2021/05/21 13:22:32;;;;;;;;;;;;;;;14.23;54.74;98880.25;5114711;28;20349;-86
2021/05/21 13:25:00;;;;;;;;;;;;;;;14.24;54.85;98880.16;5098136;28;19968;-85
2021/05/21 13:27:29;;;;;;;;;;;;;;;14.23;54.80;98883.81;5114402;28;19920;-86
2021/05/21 13:29:55;;;;;;;;;;;;;;;14.25;55.01;98886.31;5114643;28;19992;-85
2021/05/21 13:32:21;;;;;;;;;;;;;;;14.25;55.36;98876.53;5096229;28;19928;-84
2021/05/21 13:34:46;;;;;;;;;;;;;;;14.27;55.55;98863.94;5113314;28;20431;-85
2021/05/21 13:37:11;;;;;;;;;;;;;;;14.28;55.37;98865.66;5114291;28;20315;-85
2021/05/21 13:39:37;;;;;;;;;;;;;;;14.29;55.45;98846.03;5096735;28;19951;-86
2021/05/21 13:42:03;;;;;;;;;;;;;;;14.31;56.19;98845.91;5113786;28;19980;-86
2021/05/21 13:44:28;;;;;;;;;;;;;;;14.31;55.78;98881.44;5096593;28;19919;-85
2021/05/21 13:46:53;;;;;;;;;;;;;;;14.28;56.46;98854.13;5115758;28;19951;-86
2021/05/21 13:49:23;;;;;;;;;;;;;;;14.27;56.48;98863.13;5116535;28;19920;-86
